Camellia — VRCP9 — position and weather

sailwx.info

Track history (hours):
 
Tides and Currents Weather Stations Pressure Air Temp Water Temp Dewpoint Dewpoint Depression Visibility Wind Speed Wind Dir Waves Ship Positions

Camellia

Last reported at 2014-Oct-21 01:33 UTC. Time now 2014-Oct-21 02:23 UTC.
Position N 51°17' E 004°22'.

Length 222 m; draft 7.3 m.

Type: Ship (hazmat cat C). MMSI: 477791900.

Date/timePositionNaut miles runAvg speedWind from/ knotsBaromVisibWave heightAir tempDewpointWater temp
2014-Oct-21 01:33N 51°17' E 004°22'0 0.0
2014-Oct-21 00:33N 51°17' E 004°22'0 0.0
2014-Oct-20 23:33N 51°17' E 004°22'0 0.0
2014-Oct-20 22:33N 51°17' E 004°22'0 0.0
2014-Oct-20 21:33N 51°17' E 004°22'0 0.0
2014-Oct-20 20:33N 51°17' E 004°22'0 0.0
2014-Oct-20 19:33N 51°17' E 004°22'0 0.0
2014-Oct-20 18:33N 51°17' E 004°22'0 0.0
2014-Oct-20 17:33N 51°17' E 004°22'0 0.0
2014-Oct-20 16:33N 51°17' E 004°22'0 0.0
2014-Oct-20 15:33N 51°17' E 004°22'0 0.0
2014-Oct-20 14:33N 51°17' E 004°22'0 0.0
2014-Oct-20 13:33N 51°17' E 004°22'0 0.0
2014-Oct-20 12:33N 51°17' E 004°22'0 0.0
2014-Oct-20 11:30N 51°17' E 004°22'0 0.0
2014-Oct-20 10:33N 51°17' E 004°22'0 0.0
2014-Oct-20 09:33N 51°17' E 004°22'0 0.0
2014-Oct-20 08:33N 51°17' E 004°22'0 0.0
2014-Oct-20 07:33N 51°17' E 004°22'0 0.0
2014-Oct-20 06:33N 51°17' E 004°22'0 0.0
2014-Oct-20 05:33N 51°17' E 004°22'0 0.0
2014-Oct-20 04:33N 51°17' E 004°22'0 0.0
2014-Oct-20 03:33N 51°17' E 004°22'0 0.0
2014-Oct-20 02:30N 51°17' E 004°22'0 0.0
2014-Oct-20 01:33N 51°17' E 004°22'0 0.0
2014-Oct-20 00:32N 51°17' E 004°22'0 0.0
2014-Oct-19 23:32N 51°17' E 004°22'0 0.0
2014-Oct-19 22:33N 51°17' E 004°22'1 0.8
2014-Oct-19 21:34N 51°17' E 004°21'5 4.6
2014-Oct-19 20:34N 51°21' E 004°17'1 1.2
2014-Oct-19 19:34N 51°21' E 004°15'9 8.6
2014-Oct-19 18:34N 51°24' E 004°02'10 9.8
2014-Oct-19 17:33N 51°21' E 003°47'9 8.9
2014-Oct-19 16:33N 51°25' E 003°34'1514.5
2014-Oct-19 15:33N 51°24' E 003°11'1817.7
2014-Oct-19 14:33N 51°22' E 002°43'1212.4
2014-Oct-19 13:34N 51°20' E 002°23'6 6.4
2014-Oct-19 12:33N 51°17' E 002°14'7 7.5
2014-Oct-19 11:34N 51°14' E 002°04'8 8.0
2014-Oct-19 10:33N 51°10' E 001°52'1212.1
2014-Oct-19 09:34N 51°02' E 001°38'1313.4
2014-Oct-19 08:33N 50°51' E 001°25'1212.4
2014-Oct-19 07:33N 50°40' E 001°16'  
2014-Oct-16 01:26N 38°46' W 009°51'2311.8
2014-Oct-15 23:30N 38°24' W 009°45'1111.7
2014-Oct-15 22:32N 38°12' W 009°42'1111.6
2014-Oct-15 21:33N 38°01' W 009°39'1211.7
2014-Oct-15 20:33N 37°50' W 009°35'1211.7
2014-Oct-15 19:32N 37°38' W 009°32'1212.1
2014-Oct-15 18:33N 37°27' W 009°29'1311.9
2014-Oct-15 17:25N 37°14' W 009°25'2511.8
2014-Oct-15 15:17N 36°50' W 009°15'811.7
2014-Oct-15 14:33N 36°44' W 009°07'1110.8
2014-Oct-15 13:30N 36°36' W 008°57'  
2014-Oct-11 20:30N 36°35' E 000°10'1314.0
2014-Oct-11 19:33N 36°38' E 000°26'1413.9
2014-Oct-11 18:31N 36°42' E 000°44'1313.4
2014-Oct-11 17:33N 36°45' E 000°59'1413.7
2014-Oct-11 16:33N 36°48' E 001°16'1212.0
2014-Oct-11 15:32N 36°51' E 001°31'3612.0
2014-Oct-11 12:34N 36°59' E 002°14'1311.7
2014-Oct-11 11:29N 37°02' E 002°29'1512.3
2014-Oct-11 10:15N 37°06' E 002°48'812.2
2014-Oct-11 09:33N 37°08' E 002°58'1212.3
2014-Oct-11 08:33N 37°11' E 003°13'1212.1
2014-Oct-11 07:33N 37°14' E 003°28'1312.8
2014-Oct-11 06:33N 37°17' E 003°44'1312.7
2014-Oct-11 05:33N 37°20' E 003°59'2713.2
2014-Oct-11 03:29N 37°20' E 004°33'  
Track history (hours):
 
Tides and Currents Weather Stations Pressure Air Temp Water Temp Dewpoint Dewpoint Depression Visibility Wind Speed Wind Dir Waves Ship Positions

Camellia

Last reported at 2014-Oct-21 01:33 UTC. Time now 2014-Oct-21 02:23 UTC.
Position N 51°17' E 004°22'.

Length 222 m; draft 7.3 m.

Type: Ship (hazmat cat C). MMSI: 477791900.

Date/timePositionNaut miles runAvg speedWind from/ knotsBaromVisibWave heightAir tempDewpointWater temp
2014-Oct-21 01:33N 51°17' E 004°22'0 0.0
2014-Oct-21 00:33N 51°17' E 004°22'0 0.0
2014-Oct-20 23:33N 51°17' E 004°22'0 0.0
2014-Oct-20 22:33N 51°17' E 004°22'0 0.0
2014-Oct-20 21:33N 51°17' E 004°22'0 0.0
2014-Oct-20 20:33N 51°17' E 004°22'0 0.0
2014-Oct-20 19:33N 51°17' E 004°22'0 0.0
2014-Oct-20 18:33N 51°17' E 004°22'0 0.0
2014-Oct-20 17:33N 51°17' E 004°22'0 0.0
2014-Oct-20 16:33N 51°17' E 004°22'0 0.0
2014-Oct-20 15:33N 51°17' E 004°22'0 0.0
2014-Oct-20 14:33N 51°17' E 004°22'0 0.0
2014-Oct-20 13:33N 51°17' E 004°22'0 0.0
2014-Oct-20 12:33N 51°17' E 004°22'0 0.0
2014-Oct-20 11:30N 51°17' E 004°22'0 0.0
2014-Oct-20 10:33N 51°17' E 004°22'0 0.0
2014-Oct-20 09:33N 51°17' E 004°22'0 0.0
2014-Oct-20 08:33N 51°17' E 004°22'0 0.0
2014-Oct-20 07:33N 51°17' E 004°22'0 0.0
2014-Oct-20 06:33N 51°17' E 004°22'0 0.0
2014-Oct-20 05:33N 51°17' E 004°22'0 0.0
2014-Oct-20 04:33N 51°17' E 004°22'0 0.0
2014-Oct-20 03:33N 51°17' E 004°22'0 0.0
2014-Oct-20 02:30N 51°17' E 004°22'0 0.0
2014-Oct-20 01:33N 51°17' E 004°22'0 0.0
2014-Oct-20 00:32N 51°17' E 004°22'0 0.0
2014-Oct-19 23:32N 51°17' E 004°22'0 0.0
2014-Oct-19 22:33N 51°17' E 004°22'1 0.8
2014-Oct-19 21:34N 51°17' E 004°21'5 4.6
2014-Oct-19 20:34N 51°21' E 004°17'1 1.2
2014-Oct-19 19:34N 51°21' E 004°15'9 8.6
2014-Oct-19 18:34N 51°24' E 004°02'10 9.8
2014-Oct-19 17:33N 51°21' E 003°47'9 8.9
2014-Oct-19 16:33N 51°25' E 003°34'1514.5
2014-Oct-19 15:33N 51°24' E 003°11'1817.7
2014-Oct-19 14:33N 51°22' E 002°43'1212.4
2014-Oct-19 13:34N 51°20' E 002°23'6 6.4
2014-Oct-19 12:33N 51°17' E 002°14'7 7.5
2014-Oct-19 11:34N 51°14' E 002°04'8 8.0
2014-Oct-19 10:33N 51°10' E 001°52'1212.1
2014-Oct-19 09:34N 51°02' E 001°38'1313.4
2014-Oct-19 08:33N 50°51' E 001°25'1212.4
2014-Oct-19 07:33N 50°40' E 001°16'  
2014-Oct-16 01:26N 38°46' W 009°51'2311.8
2014-Oct-15 23:30N 38°24' W 009°45'1111.7
2014-Oct-15 22:32N 38°12' W 009°42'1111.6
2014-Oct-15 21:33N 38°01' W 009°39'1211.7
2014-Oct-15 20:33N 37°50' W 009°35'1211.7
2014-Oct-15 19:32N 37°38' W 009°32'1212.1
2014-Oct-15 18:33N 37°27' W 009°29'1311.9
2014-Oct-15 17:25N 37°14' W 009°25'2511.8
2014-Oct-15 15:17N 36°50' W 009°15'811.7
2014-Oct-15 14:33N 36°44' W 009°07'1110.8
2014-Oct-15 13:30N 36°36' W 008°57'  
2014-Oct-11 20:30N 36°35' E 000°10'1314.0
2014-Oct-11 19:33N 36°38' E 000°26'1413.9
2014-Oct-11 18:31N 36°42' E 000°44'1313.4
2014-Oct-11 17:33N 36°45' E 000°59'1413.7
2014-Oct-11 16:33N 36°48' E 001°16'1212.0
2014-Oct-11 15:32N 36°51' E 001°31'3612.0
2014-Oct-11 12:34N 36°59' E 002°14'1311.7
2014-Oct-11 11:29N 37°02' E 002°29'1512.3
2014-Oct-11 10:15N 37°06' E 002°48'812.2
2014-Oct-11 09:33N 37°08' E 002°58'1212.3
2014-Oct-11 08:33N 37°11' E 003°13'1212.1
2014-Oct-11 07:33N 37°14' E 003°28'1312.8
2014-Oct-11 06:33N 37°17' E 003°44'1312.7
2014-Oct-11 05:33N 37°20' E 003°59'2713.2
2014-Oct-11 03:29N 37°20' E 004°33'  

Dump ship's entire track history